Hovedside
METAR-TAF:

METAR-TAF

Lufthavner :

Stokmarknes lufthavn. Skagen

Stokmarknes, Norge

breddegrad: 68-35N, lengdegrad: 015-01E, høyde over havet: 0 m

Gjeldene værobservasjon

Denne rapporten ble laget for 40 minutter siden, klokken 13:50 UTC
Vind 2 kt fra skiftende retning
Temperatur 30°C
Luftfuktighet 49%
Trykk 1013 hPa
Sikt 10 km eller mer
ingen skyer under 1500 m og ingen bygeskyer

METAR: ENSK 181350Z VRB02KT CAVOK 30/18 Q1013

Tid: 16:30 (14:30 UTC)


TAF: fraværende

Værobservasjoner og værvarsel for over 4000 flyplasser (METAR- og TAF-rapporter).

Tilgjengelige stasjoner er representert av de røde og gule prikkene på kartet.

Hold musepekeren over prikken for å se navnet på stasjonen.

Klikk så for å se værobservasjoner og -varsler.

For å forandre kartet kan du klikke på den grønne knappen med svart kryss for å zoome inn, på den grønne knappen med strek for å zoome ut, eller på de grønne pilene for å se tilstøtende kart.


METAR-TAF: